Portada
METAR-TAF:

METAR-TAF

Aeroports :

Lilla, França

latitud: 50-34N, longitud: 003-06E, altitud: 48 m

Observació

L'informe es va fer fa 10 minuts, a les 09:00 UTC
Vent 5 kt del Oest, variant entre Oest/Sud-Oest i Nord-Oest
Temperatura 19°C
Humitat 60%
Pressió 1026 hPa
Visibilitat 10 km o més
sense núvols per sota de 1500 mi sense presència de cumulonimbus.

METAR: LFQQ 220900Z AUTO 28005KT 240V310 CAVOK 19/11 Q1026 NOSIG

Hora: 11:10 (09:10 UTC)

Pronòstic

L'informe es va fer fa 4 hores i 10 minuts, a les 05:00 UTC
Pronòstic vàlid del 22 a les 06 UTC al 23 a les 12 UTC
Vent 2 kt amb direcció variable
Visibilitat 10 km o més
sense núvols per sota de 1500 mi sense presència de cumulonimbus.
Temporalment
l' 22 a les 15 UTC al 22 a les 18 UTC
Vent 10 kt del Oest

TAF: LFQQ 220500Z 2206/2312 VRB02KT CAVOK TEMPO 2215/2218 28010KT

Observacions i pronòstics meteorològics de més de 4000 aeroports (METAR i TAF).

Les estacions disponibles són els punts grocs i vermells al mapa.

Posi el ratolí al punt desitjat per veure el nom de l'estació.

Feu clic per veure les observacions i els pronòstics meteorològics.

Per canviar el mapa: feu clic els botons verds amb una creu de color negre per apropar; al botó verd amb un guió per allunyar la imatge; o en les fletxes verdes per a mapes adjacents.


METAR-TAF: